createdAt,value
2017-03-14T00:00:15.466Z,7.25
2017-03-14T00:01:28.865Z,7.23
2017-03-14T00:02:42.288Z,7.25
2017-03-14T00:03:55.800Z,7.25
2017-03-14T00:05:09.275Z,7.25
2017-03-14T00:06:23.999Z,7.24
2017-03-14T00:07:37.837Z,7.23
2017-03-14T00:08:51.334Z,7.23
2017-03-14T00:10:05.262Z,7.22
2017-03-14T00:11:19.649Z,7.22
2017-03-14T00:12:33.724Z,7.21
2017-03-14T00:13:47.263Z,7.2
2017-03-14T00:15:00.968Z,7.19
2017-03-14T00:16:14.877Z,7.18
2017-03-14T00:17:29.548Z,7.17
2017-03-14T00:18:44.486Z,7.14
2017-03-14T00:19:58.431Z,7.11
2017-03-14T00:21:11.914Z,7.1
2017-03-14T00:22:25.690Z,7.09
2017-03-14T00:23:39.292Z,7.08
2017-03-14T00:24:52.810Z,7.07
2017-03-14T00:26:06.296Z,7.06
2017-03-14T00:27:19.812Z,7.07
2017-03-14T00:28:33.602Z,7.07
2017-03-14T00:29:47.955Z,7.05
2017-03-14T00:31:01.891Z,7.03
2017-03-14T00:32:15.338Z,7.01
2017-03-14T00:33:29.273Z,6.98
2017-03-14T00:34:43.570Z,6.94
2017-03-14T00:35:57.468Z,6.89
2017-03-14T00:37:11.013Z,6.85
2017-03-14T00:38:24.544Z,6.81
2017-03-14T00:39:38.019Z,6.79
2017-03-14T00:40:52.022Z,6.78
2017-03-14T00:42:05.496Z,6.77
2017-03-14T00:43:19.353Z,6.76
2017-03-14T00:44:33.666Z,6.76
2017-03-14T00:45:47.184Z,6.76
2017-03-14T00:47:00.718Z,6.74
2017-03-14T00:48:14.652Z,6.75
2017-03-14T00:49:28.526Z,6.74
2017-03-14T00:50:42.169Z,6.77
2017-03-14T00:51:55.682Z,6.76
2017-03-14T00:53:09.877Z,6.74
2017-03-14T00:54:23.744Z,6.71
2017-03-14T00:55:42.881Z,6.68
2017-03-14T00:56:57.247Z,6.66
2017-03-14T00:58:11.104Z,6.65
2017-03-14T00:59:24.890Z,6.65
2017-03-14T01:00:38.287Z,6.63
2017-03-14T01:01:51.777Z,6.62
2017-03-14T01:03:05.318Z,6.61
2017-03-14T01:04:18.736Z,6.61
2017-03-14T01:05:32.894Z,6.62
2017-03-14T01:06:46.706Z,6.64
2017-03-14T01:08:00.269Z,6.64
2017-03-14T01:09:14.153Z,6.64
2017-03-14T01:10:27.679Z,6.67
2017-03-14T01:11:41.180Z,6.69
2017-03-14T01:12:55.240Z,6.72
2017-03-14T01:14:08.632Z,6.73
2017-03-14T01:15:22.477Z,6.75
2017-03-14T01:16:36.368Z,6.75
2017-03-14T01:17:49.918Z,6.76
2017-03-14T01:19:03.753Z,6.76
2017-03-14T01:20:17.604Z,6.74
2017-03-14T01:21:31.437Z,6.71
2017-03-14T01:22:44.938Z,6.67
2017-03-14T01:23:58.823Z,6.62
2017-03-14T01:25:12.281Z,6.59
2017-03-14T01:26:25.750Z,6.57
2017-03-14T01:27:39.213Z,6.56
2017-03-14T01:28:53.083Z,6.56
2017-03-14T01:30:06.500Z,6.58
2017-03-14T01:31:19.937Z,6.6
2017-03-14T01:32:33.783Z,6.61
2017-03-14T01:33:48.112Z,6.62
2017-03-14T01:35:01.578Z,6.64
2017-03-14T01:36:15.405Z,6.66
2017-03-14T01:37:29.287Z,6.7
2017-03-14T01:38:42.804Z,6.73
2017-03-14T01:39:56.244Z,6.77
2017-03-14T01:41:09.654Z,6.83
2017-03-14T01:42:23.555Z,6.87
2017-03-14T01:43:37.446Z,6.89
2017-03-14T01:44:52.321Z,6.9
2017-03-14T01:46:05.710Z,6.91
2017-03-14T01:47:19.145Z,6.91
2017-03-14T01:48:32.908Z,6.9
2017-03-14T01:49:47.029Z,6.89
2017-03-14T01:51:00.476Z,6.89
2017-03-14T01:52:13.950Z,6.88
2017-03-14T01:53:27.827Z,6.87
2017-03-14T01:54:41.573Z,6.86
2017-03-14T01:55:55.730Z,6.87
2017-03-14T01:57:09.241Z,6.89
2017-03-14T01:58:23.056Z,6.91
2017-03-14T01:59:36.518Z,6.95
2017-03-14T02:00:50.553Z,6.98
2017-03-14T02:02:04.027Z,6.98
2017-03-14T02:03:17.884Z,6.98
2017-03-14T02:04:33.360Z,6.97
2017-03-14T02:05:53.490Z,6.95
2017-03-14T02:07:14.030Z,6.91
2017-03-14T02:08:34.859Z,6.88
2017-03-14T02:09:55.227Z,6.83
2017-03-14T02:11:16.635Z,6.79
2017-03-14T02:12:41.292Z,6.73
2017-03-14T02:13:58.494Z,6.7
2017-03-14T02:15:17.502Z,6.66
2017-03-14T02:16:30.951Z,6.63
2017-03-14T02:17:57.420Z,6.6
2017-03-14T02:19:11.662Z,6.56
2017-03-14T02:20:25.177Z,6.53
2017-03-14T02:21:39.005Z,6.5
2017-03-14T02:22:52.494Z,6.46
2017-03-14T02:24:05.982Z,6.42
2017-03-14T02:25:19.407Z,6.37
2017-03-14T02:26:33.312Z,6.34
2017-03-14T02:27:46.739Z,6.32
2017-03-14T02:29:00.146Z,6.31
2017-03-14T02:30:13.933Z,6.29
2017-03-14T02:31:27.459Z,6.29
2017-03-14T02:32:40.832Z,6.29
2017-03-14T02:33:54.245Z,6.26
2017-03-14T02:35:08.141Z,6.25
2017-03-14T02:36:21.683Z,6.24
2017-03-14T02:37:35.096Z,6.24
2017-03-14T02:38:48.595Z,6.25
2017-03-14T02:40:01.989Z,6.25
2017-03-14T02:41:15.469Z,6.27
2017-03-14T02:42:29.047Z,6.27
2017-03-14T02:43:42.933Z,6.28
2017-03-14T02:44:56.341Z,6.26
2017-03-14T02:46:10.190Z,6.27
2017-03-14T02:47:24.053Z,6.29
2017-03-14T02:48:37.941Z,6.31
2017-03-14T02:49:51.432Z,6.32
2017-03-14T02:51:04.838Z,6.32
2017-03-14T02:52:18.354Z,6.33
2017-03-14T02:53:31.802Z,6.33
2017-03-14T02:54:45.239Z,6.34
2017-03-14T02:55:58.746Z,6.34
2017-03-14T02:57:12.208Z,6.34
2017-03-14T02:58:26.052Z,6.35
2017-03-14T02:59:40.273Z,6.34
2017-03-14T03:00:54.145Z,6.34
2017-03-14T03:02:07.633Z,6.36
2017-03-14T03:03:21.124Z,6.38
2017-03-14T03:04:34.534Z,6.4
2017-03-14T03:05:48.025Z,6.38
2017-03-14T03:07:01.527Z,6.39
2017-03-14T03:08:15.033Z,6.4
2017-03-14T03:09:29.741Z,6.43
2017-03-14T03:10:43.671Z,6.45
2017-03-14T03:11:57.506Z,6.48
2017-03-14T03:13:10.905Z,6.52
2017-03-14T03:14:24.473Z,6.56
2017-03-14T03:15:37.966Z,6.61
2017-03-14T03:16:51.372Z,6.67
2017-03-14T03:18:05.170Z,6.72
2017-03-14T03:19:18.784Z,6.77
2017-03-14T03:20:32.230Z,6.8
2017-03-14T03:21:46.553Z,6.83
2017-03-14T03:23:00.115Z,6.85
2017-03-14T03:24:14.300Z,6.88
2017-03-14T03:25:27.670Z,6.91
2017-03-14T03:26:41.939Z,6.93
2017-03-14T03:27:55.791Z,6.96
2017-03-14T03:29:12.188Z,7
2017-03-14T03:30:25.682Z,7.03
2017-03-14T03:31:39.588Z,7.05
2017-03-14T03:32:53.058Z,7.07
2017-03-14T03:34:06.881Z,7.09
2017-03-14T03:35:20.365Z,7.08
2017-03-14T03:36:33.835Z,7.07
2017-03-14T03:37:47.268Z,7.08
2017-03-14T03:39:00.672Z,7.11
2017-03-14T03:40:14.582Z,7.11
2017-03-14T03:41:28.058Z,7.13
2017-03-14T03:42:41.693Z,7.11
2017-03-14T03:43:55.155Z,7.1
2017-03-14T03:45:09.090Z,7.07
2017-03-14T03:46:23.028Z,7.03
2017-03-14T03:47:36.848Z,7
2017-03-14T03:48:50.698Z,6.97
2017-03-14T03:50:04.167Z,6.96
2017-03-14T03:51:17.663Z,6.94
2017-03-14T03:52:31.123Z,6.95
2017-03-14T03:53:44.525Z,6.97
2017-03-14T03:54:58.648Z,6.97
2017-03-14T03:56:12.151Z,6.98
2017-03-14T03:57:26.017Z,6.95
2017-03-14T03:58:39.509Z,6.93
2017-03-14T03:59:52.963Z,6.91
2017-03-14T04:01:06.675Z,6.91
2017-03-14T04:02:20.316Z,6.89
2017-03-14T04:03:34.280Z,6.9
2017-03-14T04:04:47.767Z,6.91
2017-03-14T04:06:01.180Z,6.92
2017-03-14T04:07:15.020Z,6.96
2017-03-14T04:08:28.451Z,6.98
2017-03-14T04:09:41.927Z,7.02
2017-03-14T04:10:55.357Z,7.04
2017-03-14T04:12:09.304Z,7.07
2017-03-14T04:13:22.702Z,7.1
2017-03-14T04:14:36.188Z,7.1
2017-03-14T04:15:49.730Z,7.08
2017-03-14T04:17:03.210Z,7.06
2017-03-14T04:18:16.955Z,7.04
2017-03-14T04:19:31.297Z,7
2017-03-14T04:20:44.755Z,6.98
2017-03-14T04:21:58.265Z,6.95
2017-03-14T04:23:11.765Z,6.93
2017-03-14T04:24:25.248Z,6.93
2017-03-14T04:25:38.980Z,6.92
2017-03-14T04:26:52.503Z,6.91
2017-03-14T04:28:05.989Z,6.92
2017-03-14T04:29:19.596Z,6.9
2017-03-14T04:30:33.024Z,6.88
2017-03-14T04:31:46.460Z,6.88
2017-03-14T04:33:00.302Z,6.89
2017-03-14T04:34:13.794Z,6.88
2017-03-14T04:35:27.720Z,6.91
2017-03-14T04:36:41.183Z,6.91
2017-03-14T04:37:54.607Z,6.93
2017-03-14T04:39:40.201Z,6.95
2017-03-14T04:40:53.892Z,6.98
2017-03-14T04:42:07.752Z,7
2017-03-14T04:43:21.315Z,7.01
2017-03-14T04:44:34.782Z,7
2017-03-14T04:45:50.473Z,7.02
2017-03-14T04:47:03.871Z,7.07
2017-03-14T04:48:17.361Z,7.11
2017-03-14T04:49:31.343Z,7.15
2017-03-14T04:50:44.798Z,7.2
2017-03-14T04:51:58.267Z,7.25
2017-03-14T04:53:11.806Z,7.27
2017-03-14T04:54:25.397Z,7.32
2017-03-14T04:55:38.839Z,7.35
2017-03-14T04:56:52.267Z,7.39
2017-03-14T04:58:05.665Z,7.42
2017-03-14T04:59:19.326Z,7.46
2017-03-14T05:00:32.810Z,7.48
2017-03-14T05:01:46.309Z,7.48
2017-03-14T05:03:00.141Z,7.49
2017-03-14T05:04:13.987Z,7.5
2017-03-14T05:05:27.929Z,7.49
2017-03-14T05:06:41.477Z,7.48
2017-03-14T05:07:55.333Z,7.45
2017-03-14T05:09:09.042Z,7.43
2017-03-14T05:10:22.604Z,7.42
2017-03-14T05:11:36.024Z,7.41
2017-03-14T05:12:49.480Z,7.41
2017-03-14T05:14:03.273Z,7.39
2017-03-14T05:15:31.676Z,7.37
2017-03-14T05:16:45.373Z,7.36
2017-03-14T05:17:58.824Z,7.31
2017-03-14T05:19:12.295Z,7.26
2017-03-14T05:20:25.933Z,7.23
2017-03-14T05:21:40.308Z,7.2
2017-03-14T05:22:58.297Z,7.17
2017-03-14T05:24:12.177Z,7.14
2017-03-14T05:25:25.816Z,7.09
2017-03-14T05:26:40.124Z,7.04
2017-03-14T05:27:53.646Z,6.97
2017-03-14T05:29:08.021Z,6.95
2017-03-14T05:30:21.874Z,6.94
2017-03-14T05:31:35.388Z,6.93
2017-03-14T05:32:48.852Z,6.94
2017-03-14T05:34:02.402Z,6.94
2017-03-14T05:35:15.916Z,6.94
2017-03-14T05:36:29.384Z,6.96
2017-03-14T05:37:43.310Z,6.99
2017-03-14T05:38:57.128Z,7.05
2017-03-14T05:40:10.592Z,7.11
2017-03-14T05:41:24.054Z,7.17
2017-03-14T05:42:38.135Z,7.2
2017-03-14T05:43:52.045Z,7.24
2017-03-14T05:45:05.520Z,7.27
2017-03-14T05:46:19.392Z,7.29
2017-03-14T05:47:32.891Z,7.32
2017-03-14T05:48:46.782Z,7.35
2017-03-14T05:50:00.357Z,7.39
2017-03-14T05:51:13.793Z,7.43
2017-03-14T05:52:27.712Z,7.46
2017-03-14T05:53:41.211Z,7.47
2017-03-14T05:54:54.708Z,7.47
2017-03-14T05:56:08.329Z,7.46
2017-03-14T05:57:21.817Z,7.45
2017-03-14T05:58:35.728Z,7.41
2017-03-14T05:59:49.142Z,7.42
2017-03-14T06:01:03.049Z,7.43
2017-03-14T06:02:18.791Z,7.48
2017-03-14T06:03:32.883Z,7.52
2017-03-14T06:04:46.419Z,7.55
2017-03-14T06:05:59.911Z,7.56
2017-03-14T06:07:13.348Z,7.56
2017-03-14T06:08:27.357Z,7.55
2017-03-14T06:09:41.246Z,7.54
2017-03-14T06:10:55.834Z,7.53
2017-03-14T06:12:09.318Z,7.55
2017-03-14T06:13:22.790Z,7.56
2017-03-14T06:14:37.161Z,7.59
2017-03-14T06:15:51.097Z,7.61
2017-03-14T06:17:04.533Z,7.63
2017-03-14T06:18:18.440Z,7.64
2017-03-14T06:19:32.792Z,7.65
2017-03-14T06:20:46.292Z,7.68
2017-03-14T06:21:59.852Z,7.71
2017-03-14T06:23:13.321Z,7.73
2017-03-14T06:24:26.752Z,7.74
2017-03-14T06:25:40.315Z,7.75
2017-03-14T06:26:54.246Z,7.76
2017-03-14T06:28:09.127Z,7.76
2017-03-14T06:29:22.659Z,7.77
2017-03-14T06:30:36.173Z,7.77
2017-03-14T06:31:49.758Z,7.78
2017-03-14T06:33:03.566Z,7.78
2017-03-14T06:34:17.767Z,7.76
2017-03-14T06:35:32.053Z,7.77
2017-03-14T06:36:46.393Z,7.77
2017-03-14T06:37:59.986Z,7.77
2017-03-14T06:39:13.570Z,7.8
2017-03-14T06:40:27.781Z,7.84
2017-03-14T06:41:41.443Z,7.87
2017-03-14T06:42:54.975Z,7.9
2017-03-14T06:44:08.455Z,7.94
2017-03-14T06:45:22.451Z,7.99
2017-03-14T06:46:36.892Z,8.03
2017-03-14T06:47:50.843Z,8.07
2017-03-14T06:49:04.353Z,8.1
2017-03-14T06:50:18.425Z,8.13
2017-03-14T06:51:32.411Z,8.14
2017-03-14T06:52:46.173Z,8.16
2017-03-14T06:54:00.265Z,8.17
2017-03-14T06:55:13.769Z,8.18
2017-03-14T06:56:27.253Z,8.21
2017-03-14T06:57:41.226Z,8.23
2017-03-14T06:58:55.628Z,8.25
2017-03-14T07:00:09.561Z,8.25
2017-03-14T07:01:23.054Z,8.27
2017-03-14T07:02:36.888Z,8.28
2017-03-14T07:03:50.757Z,8.3
2017-03-14T07:05:04.582Z,8.32
2017-03-14T07:06:18.106Z,8.37
2017-03-14T07:07:31.630Z,8.43
2017-03-14T07:08:46.794Z,8.48
2017-03-14T07:10:00.347Z,8.52
2017-03-14T07:11:13.918Z,8.56
2017-03-14T07:12:27.790Z,8.59
2017-03-14T07:13:41.793Z,8.63
2017-03-14T07:14:55.334Z,8.68
2017-03-14T07:16:08.874Z,8.73
2017-03-14T07:17:22.541Z,8.78
2017-03-14T07:18:38.340Z,8.83
2017-03-14T07:19:52.373Z,8.88
2017-03-14T07:21:05.848Z,8.94
2017-03-14T07:22:19.671Z,8.99
2017-03-14T07:23:33.197Z,9.02
2017-03-14T07:24:46.735Z,9.08
2017-03-14T07:26:00.676Z,9.13
2017-03-14T07:27:14.291Z,9.18
2017-03-14T07:28:28.567Z,9.22
2017-03-14T07:29:42.132Z,9.27
2017-03-14T07:30:55.685Z,9.33
2017-03-14T07:32:09.673Z,9.38
2017-03-14T07:33:23.804Z,9.44
2017-03-14T07:34:37.756Z,9.52
2017-03-14T07:35:51.282Z,9.59
2017-03-14T07:37:05.204Z,9.64
2017-03-14T07:38:18.657Z,9.71
2017-03-14T07:39:32.934Z,9.8
2017-03-14T07:40:46.739Z,9.85
2017-03-14T07:42:00.279Z,9.89
2017-03-14T07:45:32.180Z,9.96
2017-03-14T07:46:45.960Z,9.98
2017-03-14T07:47:59.873Z,10.01
2017-03-14T07:49:13.369Z,10.02
2017-03-14T07:50:26.988Z,10.05
2017-03-14T07:51:40.466Z,10.08
2017-03-14T07:52:57.319Z,10.1
2017-03-14T07:54:10.834Z,10.14
2017-03-14T07:55:25.203Z,10.15
2017-03-14T07:56:38.756Z,10.17
2017-03-14T07:57:52.707Z,10.19
2017-03-14T07:59:07.855Z,10.24
2017-03-14T08:00:21.381Z,10.27
2017-03-14T08:01:34.899Z,10.32
2017-03-14T08:02:48.363Z,10.37
2017-03-14T08:04:01.860Z,10.42
2017-03-14T08:05:15.412Z,10.46
2017-03-14T08:06:29.039Z,10.51
2017-03-14T08:07:42.656Z,10.54
2017-03-14T08:08:56.146Z,10.58
2017-03-14T08:10:09.620Z,10.65
2017-03-14T08:11:23.157Z,10.72
2017-03-14T08:12:36.664Z,10.78
2017-03-14T08:13:50.344Z,10.85
2017-03-14T08:15:03.799Z,10.91
2017-03-14T08:16:17.422Z,10.98
2017-03-14T08:17:30.991Z,11.06
2017-03-14T08:18:45.002Z,11.12
2017-03-14T08:19:59.303Z,11.19
2017-03-14T08:21:12.782Z,11.24
2017-03-14T08:22:26.201Z,11.3
2017-03-14T08:23:40.431Z,11.36
2017-03-14T08:24:54.459Z,11.42
2017-03-14T08:26:07.944Z,11.48
2017-03-14T08:27:21.471Z,11.53
2017-03-14T08:28:35.009Z,11.59
2017-03-14T08:29:48.588Z,11.65
2017-03-14T08:31:03.041Z,11.72
2017-03-14T08:32:17.015Z,11.77
2017-03-14T08:33:30.661Z,11.86
2017-03-14T08:34:44.650Z,11.93
2017-03-14T08:36:00.673Z,12
2017-03-14T08:37:14.152Z,12.08
2017-03-14T08:38:28.392Z,12.16
2017-03-14T08:39:42.353Z,12.25
2017-03-14T08:40:55.969Z,12.33
2017-03-14T08:42:09.754Z,12.42
2017-03-14T08:43:24.363Z,12.51
2017-03-14T08:44:38.214Z,12.59
2017-03-14T08:45:51.781Z,12.68
2017-03-14T08:47:05.350Z,12.77
2017-03-14T08:48:19.315Z,12.84
2017-03-14T08:49:32.908Z,12.92
2017-03-14T08:50:46.428Z,12.98
2017-03-14T08:52:00.477Z,13.04
2017-03-14T08:53:13.994Z,13.09
2017-03-14T08:54:28.286Z,13.16
2017-03-14T08:55:42.589Z,13.22
2017-03-14T08:56:56.140Z,13.28
2017-03-14T08:58:10.069Z,13.33
2017-03-14T08:59:23.550Z,13.38
2017-03-14T09:00:37.338Z,13.45
2017-03-14T09:01:50.879Z,13.5
2017-03-14T09:03:04.953Z,13.57
2017-03-14T09:04:19.022Z,13.63
2017-03-14T09:05:33.541Z,13.7
2017-03-14T09:06:47.450Z,13.76
2017-03-14T09:08:01.426Z,13.83
2017-03-14T09:09:15.019Z,13.88
2017-03-14T09:10:28.771Z,13.96
2017-03-14T09:11:42.247Z,14.02
2017-03-14T09:12:55.720Z,14.09
2017-03-14T09:14:09.645Z,14.18
2017-03-14T09:15:23.212Z,14.28
2017-03-14T09:16:36.872Z,14.38
2017-03-14T09:17:50.896Z,14.47
2017-03-14T09:19:04.801Z,14.53
2017-03-14T09:20:18.712Z,14.57
2017-03-14T09:21:32.693Z,14.61
2017-03-14T09:22:46.577Z,14.65
2017-03-14T09:24:00.156Z,14.69
2017-03-14T09:25:13.996Z,14.72
2017-03-14T09:27:44.941Z,14.8
2017-03-14T09:28:58.450Z,14.85
2017-03-14T09:30:12.190Z,14.89
2017-03-14T09:31:26.582Z,14.94
2017-03-14T09:32:40.173Z,15.01
2017-03-14T09:33:53.719Z,15.04
2017-03-14T09:35:13.795Z,15.07
2017-03-14T09:36:27.665Z,15.1
2017-03-14T09:37:41.415Z,15.09
2017-03-14T09:38:54.846Z,15.09
2017-03-14T09:40:09.185Z,15.07
2017-03-14T09:41:22.798Z,15.07
2017-03-14T09:42:36.912Z,15.04
2017-03-14T09:43:51.236Z,14.96
2017-03-14T09:45:04.969Z,14.88
2017-03-14T09:46:18.452Z,14.82
2017-03-14T09:47:32.045Z,14.81
2017-03-14T09:48:45.496Z,14.8
2017-03-14T09:49:59.256Z,14.81
2017-03-14T09:51:13.672Z,14.83
2017-03-14T09:52:27.710Z,14.85
2017-03-14T09:53:43.717Z,14.88
2017-03-14T09:54:57.228Z,14.92
2017-03-14T09:56:11.309Z,14.95
2017-03-14T09:57:25.176Z,14.99
2017-03-14T09:58:39.188Z,15.01
2017-03-14T09:59:52.764Z,15
2017-03-14T10:01:06.791Z,14.97
2017-03-14T10:02:21.086Z,14.98
2017-03-14T10:03:34.657Z,15.03
2017-03-14T10:04:48.226Z,15.07
2017-03-14T10:06:01.822Z,15.11
2017-03-14T10:07:15.897Z,15.14
2017-03-14T10:08:29.852Z,15.2
2017-03-14T10:09:44.365Z,15.27
2017-03-14T10:10:58.312Z,15.31
2017-03-14T10:12:11.930Z,15.33
2017-03-14T10:13:26.040Z,15.36
2017-03-14T10:14:39.851Z,15.4
2017-03-14T10:15:53.413Z,15.4
2017-03-14T10:17:07.432Z,15.44
2017-03-14T10:18:21.655Z,15.47
2017-03-14T10:19:35.692Z,15.51
2017-03-14T10:20:49.494Z,15.54
2017-03-14T10:22:03.511Z,15.54
2017-03-14T10:23:17.041Z,15.53
2017-03-14T10:24:30.899Z,15.48
2017-03-14T10:25:45.005Z,15.45
2017-03-14T10:26:58.904Z,15.43
2017-03-14T10:28:13.217Z,15.44
2017-03-14T10:29:26.801Z,15.45
2017-03-14T10:30:40.729Z,15.48
2017-03-14T10:31:54.769Z,15.52
2017-03-14T10:33:08.717Z,15.52
2017-03-14T10:34:22.496Z,15.52
2017-03-14T10:35:36.300Z,15.48
2017-03-14T10:36:50.490Z,15.47
2017-03-14T10:38:04.599Z,15.45
2017-03-14T10:39:18.501Z,15.42
2017-03-14T10:40:32.229Z,15.42
2017-03-14T10:41:45.720Z,15.43
2017-03-14T10:42:59.238Z,15.4
2017-03-14T10:44:12.735Z,15.38
2017-03-14T10:45:26.585Z,15.38
2017-03-14T10:46:40.124Z,15.4
2017-03-14T10:47:53.639Z,15.42
2017-03-14T10:49:07.695Z,15.46
2017-03-14T10:50:21.383Z,15.48
2017-03-14T10:51:35.668Z,15.52
2017-03-14T10:52:49.190Z,15.57
2017-03-14T10:54:02.987Z,15.61
2017-03-14T10:55:17.134Z,15.69
2017-03-14T10:56:30.606Z,15.72
2017-03-14T10:57:44.498Z,15.75
2017-03-14T10:58:58.145Z,15.76
2017-03-14T11:00:11.972Z,15.75
2017-03-14T11:01:25.513Z,15.77
2017-03-14T11:02:38.998Z,15.77
2017-03-14T11:03:52.959Z,15.8
2017-03-14T11:05:06.840Z,15.79
2017-03-14T11:06:20.438Z,15.79
2017-03-14T11:07:34.021Z,15.79
2017-03-14T11:08:49.924Z,15.78
2017-03-14T11:10:06.067Z,15.78
2017-03-14T11:11:19.547Z,15.79
2017-03-14T11:12:33.794Z,15.81
2017-03-14T11:13:50.615Z,15.84
2017-03-14T11:15:12.771Z,15.84
2017-03-14T11:16:30.321Z,15.84
2017-03-14T11:17:44.555Z,15.86
2017-03-14T11:18:59.296Z,15.9
2017-03-14T11:20:16.521Z,15.93
2017-03-14T11:21:33.272Z,15.97
2017-03-14T11:22:56.426Z,16.02
2017-03-14T11:24:10.517Z,16.05
2017-03-14T11:25:25.888Z,16.09
2017-03-14T11:26:40.523Z,16.12
2017-03-14T11:27:54.636Z,16.13
2017-03-14T11:29:11.196Z,16.15
2017-03-14T11:30:25.244Z,16.16
2017-03-14T11:31:39.410Z,16.18
2017-03-14T11:32:52.966Z,16.21
2017-03-14T11:34:06.481Z,16.23
2017-03-14T11:35:20.337Z,16.26
2017-03-14T11:36:34.717Z,16.26
2017-03-14T11:37:52.259Z,16.29
2017-03-14T11:39:11.356Z,16.33
2017-03-14T11:40:26.899Z,16.36
2017-03-14T11:41:43.178Z,16.36
2017-03-14T11:42:56.655Z,16.32
2017-03-14T11:44:10.259Z,16.29
2017-03-14T11:45:24.128Z,16.29
2017-03-14T11:46:37.668Z,16.3
2017-03-14T11:47:51.219Z,16.34
2017-03-14T11:49:04.724Z,16.37
2017-03-14T11:50:18.657Z,16.4
2017-03-14T11:51:34.122Z,16.42
2017-03-14T11:52:48.109Z,16.46
2017-03-14T11:54:01.568Z,16.49
2017-03-14T11:55:15.392Z,16.53
2017-03-14T11:56:29.000Z,16.55
2017-03-14T11:57:42.478Z,16.55
2017-03-14T11:58:57.091Z,16.55
2017-03-14T12:00:11.416Z,16.56
2017-03-14T12:01:25.115Z,16.58
2017-03-14T12:02:38.712Z,16.6
2017-03-14T12:03:52.575Z,16.62
2017-03-14T12:05:06.099Z,16.66
2017-03-14T12:06:19.616Z,16.71
2017-03-14T12:07:33.630Z,16.78
2017-03-14T12:08:47.259Z,16.82
2017-03-14T12:10:01.304Z,16.85
2017-03-14T12:11:15.338Z,16.86
2017-03-14T12:12:28.869Z,16.88
2017-03-14T12:13:42.373Z,16.9
2017-03-14T12:14:55.868Z,16.94
2017-03-14T12:16:10.177Z,16.94
2017-03-14T12:17:24.104Z,16.94
2017-03-14T12:18:38.046Z,16.92
2017-03-14T12:19:51.994Z,16.86
2017-03-14T12:21:05.598Z,16.81
2017-03-14T12:22:19.239Z,16.79
2017-03-14T12:23:32.957Z,16.81
2017-03-14T12:24:46.914Z,16.86
2017-03-14T12:26:00.409Z,16.88
2017-03-14T12:27:16.404Z,16.94
2017-03-14T12:28:29.901Z,16.97
2017-03-14T12:29:43.424Z,16.99
2017-03-14T12:30:56.924Z,17.01
2017-03-14T12:32:10.541Z,17.03
2017-03-14T12:33:24.639Z,17.07
2017-03-14T12:34:38.131Z,17.1
2017-03-14T12:35:51.642Z,17.12
2017-03-14T12:37:06.305Z,17.14
2017-03-14T12:38:19.860Z,17.17
2017-03-14T12:39:33.572Z,17.18
2017-03-14T12:40:47.540Z,17.2
2017-03-14T12:42:01.995Z,17.23
2017-03-14T12:43:15.551Z,17.27
2017-03-14T12:45:11.380Z,17.28
2017-03-14T12:46:26.347Z,17.28
2017-03-14T12:47:40.188Z,17.31
2017-03-14T12:48:54.087Z,17.34
2017-03-14T12:50:08.012Z,17.38
2017-03-14T12:51:21.551Z,17.42
2017-03-14T12:52:35.634Z,17.45
2017-03-14T12:53:49.221Z,17.49
2017-03-14T12:55:03.206Z,17.52
2017-03-14T12:56:16.691Z,17.55
2017-03-14T12:57:30.564Z,17.59
2017-03-14T12:58:44.441Z,17.64
2017-03-14T12:59:58.004Z,17.68
2017-03-14T13:01:11.847Z,17.73
2017-03-14T13:02:25.812Z,17.75
2017-03-14T13:03:39.660Z,17.77
2017-03-14T13:05:08.499Z,17.81
2017-03-14T13:06:22.612Z,17.82
2017-03-14T13:07:36.567Z,17.83
2017-03-14T13:08:50.113Z,17.83
2017-03-14T13:10:03.715Z,17.85
2017-03-14T13:11:17.630Z,17.87
2017-03-14T13:12:31.468Z,17.9
2017-03-14T13:13:45.015Z,17.9
2017-03-14T13:14:58.558Z,17.93
2017-03-14T13:16:13.164Z,17.96
2017-03-14T13:17:26.696Z,17.95
2017-03-14T13:18:40.222Z,17.97
2017-03-14T13:19:54.395Z,17.93
2017-03-14T13:21:08.355Z,17.92
2017-03-14T13:22:21.857Z,17.91
2017-03-14T13:23:35.625Z,17.92
2017-03-14T13:24:49.448Z,17.97
2017-03-14T13:26:03.224Z,18.01
2017-03-14T13:27:17.371Z,18.03
2017-03-14T13:28:30.871Z,18.04
2017-03-14T13:29:44.830Z,18.05
2017-03-14T13:30:58.383Z,18.03
2017-03-14T13:32:12.824Z,18.01
2017-03-14T13:33:26.357Z,18.01
2017-03-14T13:34:39.913Z,18.02
2017-03-14T13:35:53.461Z,18.03
2017-03-14T13:37:21.776Z,18.03
2017-03-14T13:38:36.288Z,18.05
2017-03-14T13:39:49.793Z,18.04
2017-03-14T13:41:03.678Z,18.06
2017-03-14T13:42:17.759Z,18.08
2017-03-14T13:43:32.077Z,18.11
2017-03-14T13:44:48.449Z,18.12
2017-03-14T13:46:02.234Z,18.12
2017-03-14T13:47:16.678Z,18.13
2017-03-14T13:48:30.328Z,18.13
2017-03-14T13:49:44.971Z,18.12
2017-03-14T13:50:58.948Z,18.14
2017-03-14T13:52:13.064Z,18.16
2017-03-14T13:53:27.205Z,18.18
2017-03-14T13:54:41.148Z,18.2
2017-03-14T13:55:55.120Z,18.24
2017-03-14T13:57:09.560Z,18.25
2017-03-14T13:58:23.336Z,18.25
2017-03-14T13:59:36.925Z,18.26
2017-03-14T14:00:51.228Z,18.3
2017-03-14T14:02:05.579Z,18.32
2017-03-14T14:03:19.116Z,18.34
2017-03-14T14:04:32.743Z,18.37
2017-03-14T14:05:46.627Z,18.39
2017-03-14T14:07:01.209Z,18.42
2017-03-14T14:08:22.200Z,18.41
2017-03-14T14:09:36.672Z,18.41
2017-03-14T14:10:50.243Z,18.44
2017-03-14T14:12:03.831Z,18.46
2017-03-14T14:13:17.564Z,18.47
2017-03-14T14:14:31.756Z,18.49
2017-03-14T14:15:45.789Z,18.5
2017-03-14T14:16:59.306Z,18.51
2017-03-14T14:18:12.849Z,18.53
2017-03-14T14:19:26.320Z,18.54
2017-03-14T14:20:39.755Z,18.56
2017-03-14T14:21:53.610Z,18.58
2017-03-14T14:23:07.860Z,18.58
2017-03-14T14:24:21.500Z,18.56
2017-03-14T14:25:35.090Z,18.52
2017-03-14T14:26:48.556Z,18.48
2017-03-14T14:28:02.374Z,18.46
2017-03-14T14:29:16.538Z,18.45
2017-03-14T14:30:30.140Z,18.45
2017-03-14T14:31:43.609Z,18.44
2017-03-14T14:32:57.089Z,18.46
2017-03-14T14:34:10.604Z,18.5
2017-03-14T14:35:24.103Z,18.54
2017-03-14T14:36:37.915Z,18.57
2017-03-14T14:37:51.843Z,18.59
2017-03-14T14:39:05.711Z,18.63
2017-03-14T14:40:19.225Z,18.65
2017-03-14T14:41:33.709Z,18.65
2017-03-14T14:42:47.160Z,18.68
2017-03-14T14:44:00.896Z,18.68
2017-03-14T14:45:17.498Z,18.68
2017-03-14T14:46:34.878Z,18.69
2017-03-14T14:47:48.917Z,18.71
2017-03-14T14:49:02.337Z,18.75
2017-03-14T14:50:15.762Z,18.77
2017-03-14T14:51:29.259Z,18.8
2017-03-14T14:52:42.766Z,18.84
2017-03-14T14:53:56.921Z,18.87
2017-03-14T14:55:11.039Z,18.91
2017-03-14T14:56:24.540Z,18.95
2017-03-14T14:57:38.031Z,18.95
2017-03-14T14:58:58.109Z,18.96
2017-03-14T15:00:11.711Z,18.98
2017-03-14T15:01:27.826Z,19.02
2017-03-14T15:02:41.968Z,19.04
2017-03-14T15:03:55.516Z,19.09
2017-03-14T15:05:09.167Z,19.1
2017-03-14T15:06:22.823Z,19.11
2017-03-14T15:07:37.050Z,19.12
2017-03-14T15:08:50.610Z,19.15
2017-03-14T15:10:04.483Z,19.16
2017-03-14T15:11:18.219Z,19.18
2017-03-14T15:12:31.730Z,19.18
2017-03-14T15:13:45.290Z,19.18
2017-03-14T15:14:58.775Z,19.18
2017-03-14T15:16:12.352Z,19.2
2017-03-14T15:17:26.112Z,19.22
2017-03-14T15:18:39.629Z,19.22
2017-03-14T15:19:53.179Z,19.21
2017-03-14T15:21:07.396Z,19.21
2017-03-14T15:22:21.389Z,19.22
2017-03-14T15:23:34.978Z,19.22
2017-03-14T15:24:48.695Z,19.19
2017-03-14T15:26:02.549Z,19.19
2017-03-14T15:27:16.475Z,19.18
2017-03-14T15:29:02.841Z,19.17
2017-03-14T15:30:17.544Z,19.14
2017-03-14T15:31:31.922Z,19.12
2017-03-14T15:32:46.369Z,19.08
2017-03-14T15:34:00.490Z,19.07
2017-03-14T15:35:15.399Z,19.05
2017-03-14T15:36:28.876Z,19.07
2017-03-14T15:37:43.771Z,19.06
2017-03-14T15:38:57.629Z,19.05
2017-03-14T15:40:11.145Z,19.03
2017-03-14T15:41:24.601Z,19.03
2017-03-14T15:42:38.569Z,19.03
2017-03-14T15:43:52.122Z,19.05
2017-03-14T15:45:06.004Z,19.1
2017-03-14T15:46:20.284Z,19.21
2017-03-14T15:47:34.614Z,19.34
2017-03-14T15:48:48.576Z,19.46
2017-03-14T15:50:03.309Z,19.55
2017-03-14T15:51:17.818Z,19.59
2017-03-14T15:52:31.785Z,19.64
2017-03-14T15:53:50.415Z,19.63
2017-03-14T15:55:04.925Z,19.65
2017-03-14T15:56:19.249Z,19.65
2017-03-14T15:57:33.501Z,19.61
2017-03-14T15:58:47.567Z,19.59
2017-03-14T16:00:01.642Z,19.57
2017-03-14T16:01:15.578Z,19.55
2017-03-14T16:02:29.096Z,19.54
2017-03-14T16:03:42.568Z,19.53
2017-03-14T16:04:56.544Z,19.51
2017-03-14T16:06:10.041Z,19.49
2017-03-14T16:07:23.497Z,19.47
2017-03-14T16:08:36.972Z,19.45
2017-03-14T16:09:50.932Z,19.43
2017-03-14T16:11:04.572Z,19.41
2017-03-14T16:12:19.120Z,19.37
2017-03-14T16:13:32.768Z,19.33
2017-03-14T16:14:46.391Z,19.29
2017-03-14T16:16:00.373Z,19.25
2017-03-14T16:17:13.930Z,19.19